createdAt,value
2017-03-23T00:00:45.451Z,18.27
2017-03-23T00:01:43.780Z,17.43
2017-03-23T00:02:42.073Z,17.38
2017-03-23T00:03:40.329Z,16.83
2017-03-23T00:04:38.656Z,18.13
2017-03-23T00:05:36.964Z,17.15
2017-03-23T00:06:35.285Z,17.57
2017-03-23T00:07:33.541Z,17.82
2017-03-23T00:08:32.529Z,18.28
2017-03-23T00:09:30.801Z,15.73
2017-03-23T00:10:29.073Z,17.13
2017-03-23T00:11:27.309Z,15.63
2017-03-23T00:12:25.592Z,16.82
2017-03-23T00:13:24.561Z,16.65
2017-03-23T00:14:22.776Z,17.20
2017-03-23T00:15:21.825Z,16.58
2017-03-23T00:16:20.104Z,16.58
2017-03-23T00:17:18.358Z,16.85
2017-03-23T00:18:16.653Z,17.33
2017-03-23T00:19:14.927Z,16.35
2017-03-23T00:20:13.181Z,17.20
2017-03-23T00:21:11.458Z,17.67
2017-03-23T00:22:09.761Z,16.05
2017-03-23T00:23:08.032Z,17.22
2017-03-23T00:24:06.313Z,16.30
2017-03-23T00:25:05.351Z,16.85
2017-03-23T00:26:04.340Z,17.65
2017-03-23T00:27:02.626Z,16.73
2017-03-23T00:28:00.873Z,16.35
2017-03-23T00:28:59.124Z,17.10
2017-03-23T00:29:57.376Z,17.15
2017-03-23T00:30:55.636Z,15.43
2017-03-23T00:31:53.882Z,17.77
2017-03-23T00:32:52.854Z,18.80
2017-03-23T00:33:51.125Z,15.40
2017-03-23T00:34:49.373Z,17.67
2017-03-23T00:35:47.618Z,16.60
2017-03-23T00:36:45.871Z,16.60
2017-03-23T00:37:44.105Z,17.28
2017-03-23T00:38:42.345Z,16.78
2017-03-23T00:39:40.605Z,16.90
2017-03-23T00:40:38.881Z,16.90
2017-03-23T00:41:37.865Z,18.43
2017-03-23T00:42:36.100Z,17.63
2017-03-23T00:43:34.336Z,19.03
2017-03-23T00:44:32.569Z,16.38
2017-03-23T00:45:30.840Z,18.70
2017-03-23T00:46:29.097Z,17.88
2017-03-23T00:47:27.348Z,17.82
2017-03-23T00:48:25.593Z,18.50
2017-03-23T00:49:23.833Z,16.45
2017-03-23T00:50:22.072Z,18.50
2017-03-23T00:51:20.337Z,18.15
2017-03-23T00:52:18.609Z,18.37
2017-03-23T00:53:16.879Z,18.17
2017-03-23T00:54:15.129Z,18.12
2017-03-23T00:55:13.371Z,18.05
2017-03-23T00:56:11.620Z,18.15
2017-03-23T00:57:09.934Z,19.52
2017-03-23T00:58:08.372Z,18.08
2017-03-23T00:59:06.620Z,16.88
2017-03-23T01:00:04.957Z,16.92
2017-03-23T01:01:03.230Z,16.95
2017-03-23T01:02:01.529Z,17.55
2017-03-23T01:02:59.841Z,16.67
2017-03-23T01:03:58.081Z,17.78
2017-03-23T01:04:56.481Z,17.52
2017-03-23T01:06:00.512Z,17.68
2017-03-23T01:07:04.565Z,16.92
2017-03-23T01:08:08.569Z,19.48
2017-03-23T01:09:12.524Z,16.98
2017-03-23T01:10:16.428Z,18.42
2017-03-23T01:11:20.450Z,17.37
2017-03-23T01:12:24.381Z,17.48
2017-03-23T01:13:28.485Z,16.95
2017-03-23T01:14:32.401Z,17.93
2017-03-23T01:15:36.348Z,19.17
2017-03-23T01:16:40.277Z,17.73
2017-03-23T01:17:44.320Z,17.17
2017-03-23T01:18:42.627Z,18.22
2017-03-23T01:19:40.853Z,18.33
2017-03-23T01:20:39.108Z,18.62
2017-03-23T01:21:37.402Z,17.58
2017-03-23T01:22:35.625Z,17.83
2017-03-23T01:23:33.916Z,18.37
2017-03-23T01:24:32.180Z,19.98
2017-03-23T01:25:30.401Z,19.15
2017-03-23T01:26:28.668Z,18.72
2017-03-23T01:27:27.653Z,17.20
2017-03-23T01:28:26.617Z,16.28
2017-03-23T01:29:25.616Z,18.20
2017-03-23T01:30:23.885Z,19.18
2017-03-23T01:31:22.141Z,18.95
2017-03-23T01:32:21.129Z,18.40
2017-03-23T01:33:19.389Z,20.08
2017-03-23T01:34:17.693Z,18.97
2017-03-23T01:35:15.934Z,17.38
2017-03-23T01:36:14.229Z,19.87
2017-03-23T01:37:12.465Z,18.77
2017-03-23T01:38:11.432Z,19.50
2017-03-23T01:39:10.470Z,19.28
2017-03-23T01:40:08.717Z,19.47
2017-03-23T01:41:06.983Z,18.37
2017-03-23T01:42:05.247Z,18.77
2017-03-23T01:43:03.505Z,18.13
2017-03-23T01:44:01.737Z,19.75
2017-03-23T01:44:59.981Z,18.98
2017-03-23T01:45:58.221Z,18.43
2017-03-23T01:46:56.485Z,18.25
2017-03-23T01:47:54.755Z,18.77
2017-03-23T01:48:53.005Z,18.23
2017-03-23T01:49:51.297Z,19.30
2017-03-23T01:50:49.549Z,18.95
2017-03-23T01:51:47.829Z,16.87
2017-03-23T01:52:46.062Z,18.42
2017-03-23T01:53:44.337Z,19.05
2017-03-23T01:54:42.594Z,18.48
2017-03-23T01:55:40.837Z,18.52
2017-03-23T01:56:39.841Z,19.42
2017-03-23T01:57:38.074Z,19.48
2017-03-23T01:58:36.361Z,19.07
2017-03-23T01:59:34.673Z,21.17
2017-03-23T02:00:32.941Z,19.45
2017-03-23T02:01:31.216Z,19.00
2017-03-23T02:02:30.228Z,20.88
2017-03-23T02:03:29.213Z,19.82
2017-03-23T02:04:27.508Z,19.95
2017-03-23T02:05:25.788Z,20.08
2017-03-23T02:06:24.061Z,21.05
2017-03-23T02:07:22.338Z,19.13
2017-03-23T02:08:20.566Z,19.83
2017-03-23T02:09:18.839Z,20.20
2017-03-23T02:10:17.132Z,19.92
2017-03-23T02:11:15.432Z,19.50
2017-03-23T02:12:13.648Z,19.05
2017-03-23T02:13:11.881Z,19.23
2017-03-23T02:14:10.905Z,19.50
2017-03-23T02:15:09.216Z,20.95
2017-03-23T02:16:07.541Z,19.95
2017-03-23T02:17:05.849Z,20.03
2017-03-23T02:18:04.140Z,20.95
2017-03-23T02:19:03.146Z,20.92
2017-03-23T02:20:01.412Z,19.60
2017-03-23T02:20:59.656Z,19.82
2017-03-23T02:21:57.892Z,21.48
2017-03-23T02:22:56.185Z,19.83
2017-03-23T02:23:55.181Z,20.35
2017-03-23T02:24:53.404Z,19.12
2017-03-23T02:25:51.680Z,20.72
2017-03-23T02:26:49.910Z,21.27
2017-03-23T02:27:48.149Z,20.10
2017-03-23T02:28:46.396Z,19.90
2017-03-23T02:29:45.409Z,19.78
2017-03-23T02:30:43.651Z,19.20
2017-03-23T02:31:41.889Z,19.38
2017-03-23T02:32:40.105Z,19.07
2017-03-23T02:33:38.346Z,18.05
2017-03-23T02:34:37.356Z,19.10
2017-03-23T02:35:35.605Z,19.75
2017-03-23T02:36:33.849Z,18.70
2017-03-23T02:37:32.049Z,19.65
2017-03-23T02:38:30.281Z,19.97
2017-03-23T02:39:28.484Z,19.88
2017-03-23T02:40:26.729Z,20.00
2017-03-23T02:41:24.953Z,19.83
2017-03-23T02:42:23.205Z,22.95
2017-03-23T02:43:21.444Z,19.40
2017-03-23T02:44:19.668Z,20.93
2017-03-23T02:45:17.880Z,20.83
2017-03-23T02:46:16.120Z,19.37
2017-03-23T02:47:14.309Z,20.13
2017-03-23T02:48:12.577Z,20.37
2017-03-23T02:49:10.812Z,20.73
2017-03-23T02:50:09.033Z,19.62
2017-03-23T02:51:07.244Z,18.98
2017-03-23T02:52:05.448Z,20.18
2017-03-23T02:53:03.704Z,20.63
2017-03-23T02:54:01.941Z,18.95
2017-03-23T02:55:00.156Z,20.98
2017-03-23T02:55:58.360Z,20.33
2017-03-23T02:56:56.552Z,20.18
2017-03-23T02:57:54.791Z,21.37
2017-03-23T02:58:53.765Z,20.22
2017-03-23T02:59:51.964Z,20.68
2017-03-23T03:00:50.176Z,21.23
2017-03-23T03:01:48.388Z,18.65
2017-03-23T03:02:46.641Z,19.83
2017-03-23T03:03:44.860Z,20.37
2017-03-23T03:04:43.841Z,19.78
2017-03-23T03:05:42.093Z,18.98
2017-03-23T03:06:40.376Z,21.42
2017-03-23T03:07:38.625Z,21.75
2017-03-23T03:08:36.901Z,20.53
2017-03-23T03:09:35.193Z,20.93
2017-03-23T03:10:33.645Z,19.85
2017-03-23T03:11:31.908Z,21.32
2017-03-23T03:12:30.113Z,18.57
2017-03-23T03:13:29.072Z,20.00
2017-03-23T03:14:27.297Z,20.22
2017-03-23T03:15:25.525Z,21.30
2017-03-23T03:16:24.493Z,19.72
2017-03-23T03:17:22.813Z,19.67
2017-03-23T03:18:21.056Z,19.80
2017-03-23T03:19:19.310Z,20.10
2017-03-23T03:20:17.563Z,20.52
2017-03-23T03:21:15.813Z,20.37
2017-03-23T03:22:14.117Z,18.38
2017-03-23T03:23:12.354Z,21.83
2017-03-23T03:24:10.594Z,20.33
2017-03-23T03:25:09.585Z,20.53
2017-03-23T03:26:08.399Z,19.10
2017-03-23T03:27:07.392Z,19.53
2017-03-23T03:28:05.621Z,20.50
2017-03-23T03:29:03.892Z,20.98
2017-03-23T03:30:02.162Z,19.72
2017-03-23T03:31:00.417Z,20.53
2017-03-23T03:31:58.654Z,20.12
2017-03-23T03:32:56.941Z,20.93
2017-03-23T03:33:55.177Z,20.50
2017-03-23T03:34:56.040Z,19.67
2017-03-23T03:35:54.276Z,19.65
2017-03-23T03:36:52.513Z,19.82
2017-03-23T03:37:51.492Z,19.33
2017-03-23T03:38:49.746Z,20.08
2017-03-23T03:39:48.013Z,20.47
2017-03-23T03:40:47.005Z,19.42
2017-03-23T03:41:45.238Z,19.80
2017-03-23T03:42:43.476Z,19.80
2017-03-23T03:43:41.712Z,19.32
2017-03-23T03:44:39.972Z,19.35
2017-03-23T03:45:38.940Z,19.62
2017-03-23T03:46:37.179Z,19.20
2017-03-23T03:47:35.401Z,19.22
2017-03-23T03:48:33.628Z,20.13
2017-03-23T03:49:31.864Z,20.50
2017-03-23T03:50:30.321Z,20.25
2017-03-23T03:51:28.545Z,21.17
2017-03-23T03:52:27.521Z,20.43
2017-03-23T03:53:25.760Z,20.97
2017-03-23T03:54:24.005Z,19.63
2017-03-23T03:55:22.248Z,21.13
2017-03-23T03:56:20.552Z,20.20
2017-03-23T03:57:18.819Z,17.63
2017-03-23T03:58:17.057Z,19.73
2017-03-23T03:59:15.282Z,19.43
2017-03-23T04:00:14.277Z,19.25
2017-03-23T04:01:12.561Z,18.88
2017-03-23T04:02:10.817Z,19.03
2017-03-23T04:03:09.067Z,20.65
2017-03-23T04:04:08.041Z,20.23
2017-03-23T04:05:06.284Z,19.85
2017-03-23T04:06:04.545Z,19.93
2017-03-23T04:07:02.797Z,18.63
2017-03-23T04:08:01.052Z,20.25
2017-03-23T04:08:59.288Z,21.62
2017-03-23T04:09:57.537Z,21.78
2017-03-23T04:10:55.781Z,21.02
2017-03-23T04:11:54.076Z,21.60
2017-03-23T04:12:52.333Z,20.50
2017-03-23T04:13:50.593Z,23.12
2017-03-23T04:14:48.835Z,19.30
2017-03-23T04:15:47.081Z,21.17
2017-03-23T04:16:45.392Z,22.23
2017-03-23T04:17:43.621Z,22.02
2017-03-23T04:18:41.922Z,23.00
2017-03-23T04:19:40.375Z,22.05
2017-03-23T04:20:38.870Z,22.80
2017-03-23T04:21:37.136Z,20.58
2017-03-23T04:22:35.376Z,21.98
2017-03-23T04:23:33.689Z,21.38
2017-03-23T04:24:31.929Z,21.37
2017-03-23T04:25:30.220Z,22.13
2017-03-23T04:26:28.457Z,21.00
2017-03-23T04:27:26.694Z,22.97
2017-03-23T04:28:24.959Z,21.18
2017-03-23T04:29:23.216Z,20.22
2017-03-23T04:30:21.480Z,21.98
2017-03-23T04:31:19.762Z,22.60
2017-03-23T04:32:17.996Z,21.22
2017-03-23T04:33:16.216Z,22.68
2017-03-23T04:34:14.473Z,22.93
2017-03-23T04:35:12.718Z,21.83
2017-03-23T04:36:10.948Z,22.42
2017-03-23T04:37:09.228Z,22.20
2017-03-23T04:38:07.480Z,21.68
2017-03-23T04:39:05.721Z,19.38
2017-03-23T04:40:03.972Z,21.77
2017-03-23T04:41:02.228Z,22.22
2017-03-23T04:42:00.501Z,22.23
2017-03-23T04:42:58.760Z,20.75
2017-03-23T04:43:56.973Z,21.45
2017-03-23T04:44:55.228Z,22.98
2017-03-23T04:45:53.448Z,20.25
2017-03-23T04:46:51.673Z,21.00
2017-03-23T04:47:49.940Z,19.20
2017-03-23T04:48:48.169Z,20.70
2017-03-23T04:49:46.384Z,20.22
2017-03-23T04:50:46.289Z,20.18
2017-03-23T04:51:44.529Z,21.07
2017-03-23T04:52:42.754Z,19.58
2017-03-23T04:53:40.992Z,20.42
2017-03-23T04:54:39.249Z,20.80
2017-03-23T04:55:37.465Z,21.67
2017-03-23T04:56:35.691Z,20.20
2017-03-23T04:57:33.931Z,22.02
2017-03-23T04:58:32.901Z,21.60
2017-03-23T04:59:31.136Z,20.00
2017-03-23T05:00:29.372Z,20.62
2017-03-23T14:53:55.253Z,8.22
2017-03-23T14:54:53.974Z,8.00
2017-03-23T14:55:53.191Z,8.70
2017-03-23T14:56:51.456Z,8.90
2017-03-23T14:57:50.469Z,6.95
2017-03-23T14:58:48.717Z,7.38
2017-03-23T14:59:46.983Z,8.08
2017-03-23T15:00:46.009Z,7.90
2017-03-23T15:01:44.248Z,8.23
2017-03-23T15:02:43.357Z,7.53
2017-03-23T15:03:41.597Z,8.30
2017-03-23T15:04:40.571Z,8.08
2017-03-23T15:05:39.552Z,8.35
2017-03-23T15:06:37.821Z,7.73
2017-03-23T15:07:36.812Z,7.95
2017-03-23T15:08:35.786Z,7.88
2017-03-23T15:09:34.021Z,7.32
2017-03-23T15:10:32.775Z,7.37
2017-03-23T15:11:31.031Z,8.12
2017-03-23T15:12:29.448Z,7.62
2017-03-23T15:13:28.153Z,7.88
2017-03-23T15:14:26.414Z,7.43
2017-03-23T15:15:24.724Z,8.75
2017-03-23T15:16:22.974Z,7.62
2017-03-23T15:17:21.285Z,7.43
2017-03-23T15:18:19.813Z,6.68
2017-03-23T15:19:18.252Z,6.95
2017-03-23T15:20:17.264Z,7.22
2017-03-23T15:21:15.593Z,7.77
2017-03-23T15:22:13.885Z,6.92
2017-03-23T15:23:12.144Z,6.87
2017-03-23T15:24:10.372Z,6.57
2017-03-23T15:25:08.731Z,6.40
2017-03-23T15:26:06.965Z,7.15
2017-03-23T15:27:05.235Z,6.92
2017-03-23T15:28:03.696Z,7.35
2017-03-23T15:29:01.961Z,7.17
2017-03-23T15:30:00.381Z,7.45
2017-03-23T15:30:58.604Z,6.55
2017-03-23T15:31:56.848Z,6.60
2017-03-23T15:32:55.832Z,7.30
2017-03-23T15:33:54.869Z,7.00
2017-03-23T15:34:53.097Z,6.65
2017-03-23T15:35:51.349Z,7.87
2017-03-23T15:36:49.654Z,8.33
2017-03-23T15:37:47.893Z,7.82
2017-03-23T15:38:46.121Z,7.57
2017-03-23T15:39:44.341Z,8.12
2017-03-23T15:40:42.589Z,7.25
2017-03-23T15:41:40.862Z,7.00
2017-03-23T15:42:39.097Z,7.55
2017-03-23T15:43:38.141Z,7.87
2017-03-23T15:44:36.386Z,7.40
2017-03-23T15:45:34.605Z,6.87
2017-03-23T15:46:33.645Z,7.65
2017-03-23T15:47:31.873Z,7.72
2017-03-23T15:48:30.141Z,7.60
2017-03-23T15:49:28.491Z,7.72
2017-03-23T15:50:26.732Z,7.90
2017-03-23T15:51:25.000Z,8.25
2017-03-23T15:52:23.342Z,7.55
2017-03-23T15:53:21.597Z,7.03
2017-03-23T15:54:19.931Z,7.35
2017-03-23T15:55:18.925Z,6.75
2017-03-23T15:56:17.905Z,6.83
2017-03-23T15:57:16.136Z,6.18
2017-03-23T15:58:14.404Z,7.82
2017-03-23T15:59:13.365Z,7.07
2017-03-23T16:00:11.685Z,7.02
2017-03-23T16:01:09.948Z,7.70
2017-03-23T16:02:08.165Z,7.73
2017-03-23T16:03:06.508Z,6.63
2017-03-23T16:04:04.757Z,7.28
2017-03-23T16:05:03.736Z,6.85
2017-03-23T16:06:01.994Z,7.65
2017-03-23T16:07:00.244Z,7.98
2017-03-23T16:07:58.627Z,7.92
2017-03-23T16:08:56.884Z,7.67
2017-03-23T16:09:55.868Z,7.07
2017-03-23T16:10:54.103Z,7.20
2017-03-23T16:11:52.805Z,7.42
2017-03-23T16:12:51.102Z,6.60
2017-03-23T16:13:49.386Z,7.15
2017-03-23T16:14:47.620Z,7.22
2017-03-23T16:15:45.870Z,7.53
2017-03-23T16:16:44.084Z,7.40
2017-03-23T16:17:42.311Z,7.33
2017-03-23T16:18:40.583Z,7.50
2017-03-23T16:19:38.837Z,6.92
2017-03-23T16:20:37.363Z,7.03
2017-03-23T16:21:35.613Z,7.27
2017-03-23T16:22:34.193Z,7.15
2017-03-23T16:23:32.461Z,7.15
2017-03-23T16:24:30.776Z,7.58
2017-03-23T16:25:30.240Z,7.37
2017-03-23T16:26:28.480Z,6.60
2017-03-23T16:27:26.809Z,7.78
2017-03-23T16:28:25.045Z,7.25
2017-03-23T16:29:23.811Z,7.90
2017-03-23T16:30:22.041Z,7.43
2017-03-23T16:31:20.478Z,7.70
2017-03-23T16:32:18.693Z,8.23
2017-03-23T16:33:17.145Z,6.88
2017-03-23T16:34:15.429Z,7.50
2017-03-23T16:35:13.801Z,6.92
2017-03-23T16:36:12.158Z,7.13
2017-03-23T16:37:10.412Z,7.52
2017-03-23T16:38:08.648Z,7.42
2017-03-23T16:39:06.882Z,7.05
2017-03-23T16:40:05.366Z,7.57
2017-03-23T16:41:03.672Z,5.82
2017-03-23T16:42:02.669Z,7.10
2017-03-23T16:43:01.421Z,6.37
2017-03-23T16:43:59.765Z,6.77
2017-03-23T16:44:58.183Z,7.47
2017-03-23T16:45:56.461Z,6.57
2017-03-23T16:46:54.677Z,7.08
2017-03-23T16:47:53.174Z,7.03
2017-03-23T16:48:51.454Z,6.35
2017-03-23T16:49:49.925Z,6.88
2017-03-23T16:50:48.908Z,6.30
2017-03-23T16:51:47.864Z,6.40
2017-03-23T16:52:49.393Z,6.35
2017-03-23T16:53:47.656Z,6.12
2017-03-23T16:54:45.925Z,6.03
2017-03-23T16:55:44.173Z,6.70
2017-03-23T16:56:42.400Z,6.10
2017-03-23T16:57:40.838Z,6.25
2017-03-23T16:58:39.149Z,6.32
2017-03-23T16:59:37.409Z,6.03
2017-03-23T17:00:35.889Z,5.78
2017-03-23T17:01:34.163Z,6.02
2017-03-23T17:02:32.426Z,5.78
2017-03-23T17:03:30.674Z,5.97
2017-03-23T17:04:28.941Z,5.75
2017-03-23T17:05:27.955Z,6.53
2017-03-23T17:06:27.846Z,5.40
2017-03-23T17:07:26.366Z,6.25
2017-03-23T17:08:24.586Z,5.35
2017-03-23T17:09:23.061Z,5.20
2017-03-23T17:10:21.295Z,5.60
2017-03-23T17:11:20.256Z,5.32
2017-03-23T17:12:18.554Z,5.62
2017-03-23T17:13:17.046Z,5.20
2017-03-23T17:14:16.053Z,5.95
2017-03-23T17:15:14.281Z,6.73
2017-03-23T17:16:12.529Z,4.77
2017-03-23T17:17:10.783Z,5.02
2017-03-23T17:18:09.031Z,5.53
2017-03-23T17:19:07.249Z,5.52
2017-03-23T17:20:05.493Z,5.75
2017-03-23T17:21:03.723Z,5.70
2017-03-23T17:22:01.941Z,5.87
2017-03-23T17:23:00.161Z,5.40
2017-03-23T17:23:58.375Z,5.90
2017-03-23T17:24:56.599Z,6.17
2017-03-23T17:25:54.857Z,5.82
2017-03-23T17:26:53.517Z,6.43
2017-03-23T17:27:51.745Z,6.07
2017-03-23T17:28:49.989Z,5.82
2017-03-23T17:29:48.241Z,5.85
2017-03-23T17:30:46.503Z,6.15
2017-03-23T17:31:44.790Z,5.93
2017-03-23T17:32:43.758Z,6.28
2017-03-23T17:33:42.005Z,5.75
2017-03-23T17:34:40.242Z,6.10
2017-03-23T17:35:38.482Z,6.95
2017-03-23T17:36:36.711Z,6.65
2017-03-23T17:37:34.966Z,5.93
2017-03-23T17:38:33.182Z,6.48
2017-03-23T17:39:31.398Z,6.77
2017-03-23T17:40:29.636Z,6.70
2017-03-23T17:41:27.869Z,6.55
2017-03-23T17:42:26.117Z,7.02
2017-03-23T17:43:24.346Z,5.90
2017-03-23T17:44:22.622Z,6.48
2017-03-23T17:45:20.864Z,6.82
2017-03-23T17:46:19.089Z,6.23
2017-03-23T17:47:17.313Z,6.60
2017-03-23T17:48:15.553Z,6.53
2017-03-23T17:49:14.434Z,6.68
2017-03-23T17:50:12.665Z,6.90
2017-03-23T17:51:11.653Z,6.60
2017-03-23T17:52:09.904Z,5.95
2017-03-23T17:53:08.134Z,6.30
2017-03-23T17:54:06.416Z,7.00
2017-03-23T17:55:04.629Z,7.27
2017-03-23T17:56:02.867Z,6.95
2017-03-23T17:57:01.122Z,7.22
2017-03-23T17:57:59.372Z,6.85
2017-03-23T17:58:57.602Z,6.68
2017-03-23T17:59:55.831Z,8.23
2017-03-23T18:00:54.084Z,7.90
2017-03-23T18:01:52.355Z,7.02
2017-03-23T18:02:50.589Z,6.72
2017-03-23T18:03:48.794Z,7.37
2017-03-23T18:04:47.021Z,6.65
2017-03-23T18:05:45.257Z,7.45
2017-03-23T18:06:43.486Z,7.30
2017-03-23T18:07:42.572Z,8.10
2017-03-23T18:08:40.835Z,7.60
2017-03-23T18:09:40.653Z,7.75
2017-03-23T18:10:39.196Z,8.42
2017-03-23T18:11:37.840Z,7.87
2017-03-23T18:12:36.197Z,7.73
2017-03-23T18:13:34.449Z,7.47
2017-03-23T18:14:32.677Z,7.45
2017-03-23T18:15:31.188Z,8.13
2017-03-23T18:16:29.449Z,7.13
2017-03-23T18:17:27.853Z,8.55
2017-03-23T18:18:26.119Z,7.82
2017-03-23T18:19:24.349Z,7.63
2017-03-23T18:20:23.644Z,7.57
2017-03-23T18:21:21.873Z,8.85
2017-03-23T18:22:20.110Z,8.55
2017-03-23T18:23:18.394Z,8.53
2017-03-23T18:24:16.646Z,8.43
2017-03-23T18:25:14.898Z,8.12
2017-03-23T18:26:13.105Z,8.28
2017-03-23T18:27:11.346Z,9.28
2017-03-23T18:28:09.585Z,8.98
2017-03-23T18:29:07.838Z,9.05
2017-03-23T18:30:06.114Z,9.23
2017-03-23T18:31:04.324Z,8.08
2017-03-23T18:32:02.553Z,8.95
2017-03-23T18:33:00.802Z,8.28
2017-03-23T18:33:59.035Z,8.52
2017-03-23T18:34:57.266Z,8.40
2017-03-23T18:35:55.521Z,8.37
2017-03-23T18:36:53.765Z,8.65
2017-03-23T18:37:52.017Z,9.12
2017-03-23T18:38:50.248Z,8.67
2017-03-23T18:39:48.521Z,7.93
2017-03-23T18:40:46.761Z,8.55
2017-03-23T18:41:45.744Z,8.27
2017-03-23T18:42:43.977Z,7.92
2017-03-23T18:43:42.234Z,8.60
2017-03-23T18:44:40.459Z,8.45
2017-03-23T18:45:38.676Z,8.65
2017-03-23T18:46:36.921Z,8.07
2017-03-23T18:47:35.932Z,8.32
2017-03-23T18:48:34.177Z,8.15
2017-03-23T18:49:32.416Z,8.75
2017-03-23T18:50:30.646Z,8.45
2017-03-23T18:51:28.898Z,7.95
2017-03-23T18:52:27.169Z,7.80
2017-03-23T18:53:25.414Z,8.18
2017-03-23T18:54:23.638Z,8.98
2017-03-23T18:55:21.858Z,8.35
2017-03-23T18:56:20.098Z,8.28
2017-03-23T18:57:19.069Z,8.17
2017-03-23T18:58:18.102Z,8.03
2017-03-23T18:59:16.321Z,8.55
2017-03-23T19:00:14.646Z,8.93
2017-03-23T19:01:12.941Z,9.52
2017-03-23T19:02:11.185Z,8.00
2017-03-23T19:03:09.462Z,8.83
2017-03-23T19:04:07.753Z,8.85
2017-03-23T19:05:06.077Z,8.00
2017-03-23T19:06:04.309Z,8.28
2017-03-23T19:07:02.549Z,9.63
2017-03-23T19:08:01.046Z,9.72
2017-03-23T19:08:59.294Z,8.65
2017-03-23T19:09:59.087Z,8.90
2017-03-23T19:10:57.313Z,9.33
2017-03-23T19:11:55.560Z,10.12
2017-03-23T19:12:53.809Z,8.45
2017-03-23T19:13:52.062Z,8.87
2017-03-23T19:14:50.348Z,8.65
2017-03-23T19:15:48.601Z,9.47
2017-03-23T19:16:47.562Z,10.23
2017-03-23T19:17:45.837Z,9.27
2017-03-23T19:18:44.825Z,9.18
2017-03-23T19:19:43.078Z,8.32
2017-03-23T19:20:41.409Z,9.00
2017-03-23T19:21:39.657Z,8.95
2017-03-23T19:22:37.907Z,9.52
2017-03-23T19:23:36.150Z,9.73
2017-03-23T19:24:34.373Z,9.17
2017-03-23T19:25:33.361Z,9.17
2017-03-23T19:26:31.597Z,9.10
2017-03-23T19:27:29.853Z,9.72
2017-03-23T19:28:28.391Z,9.38
2017-03-23T19:29:26.662Z,9.60
2017-03-23T19:30:25.662Z,9.95
2017-03-23T19:31:23.910Z,11.02
2017-03-23T19:32:22.174Z,9.78
2017-03-23T19:33:21.183Z,9.60
2017-03-23T19:34:19.469Z,9.42
2017-03-23T19:35:17.729Z,9.63
2017-03-23T19:36:15.953Z,9.25
2017-03-23T19:37:14.953Z,9.35
2017-03-23T19:38:13.207Z,8.33
2017-03-23T19:39:11.526Z,9.78
2017-03-23T19:40:09.791Z,8.97
2017-03-23T19:41:08.112Z,9.93
2017-03-23T19:42:06.357Z,9.45
2017-03-23T19:43:04.589Z,8.65
2017-03-23T19:44:02.952Z,9.07
2017-03-23T19:45:01.230Z,9.12
2017-03-23T19:45:59.474Z,9.25
2017-03-23T19:46:57.706Z,9.13
2017-03-23T19:47:56.698Z,9.38
2017-03-23T19:48:54.945Z,8.97
2017-03-23T19:49:53.933Z,8.32
2017-03-23T19:50:52.218Z,9.08
2017-03-23T19:51:52.093Z,8.67
2017-03-23T19:52:50.346Z,8.90
2017-03-23T19:53:48.614Z,9.47
2017-03-23T19:54:47.576Z,9.05
2017-03-23T19:55:45.825Z,9.25
2017-03-23T19:56:44.100Z,7.95
2017-03-23T19:57:42.338Z,9.18
2017-03-23T19:58:41.338Z,8.77
2017-03-23T19:59:39.612Z,9.07
2017-03-23T20:00:37.921Z,8.37
2017-03-23T20:01:36.184Z,8.78
2017-03-23T20:02:34.497Z,8.78
2017-03-23T20:03:32.762Z,9.20
2017-03-23T20:04:31.056Z,9.02
2017-03-23T20:05:29.340Z,8.17
2017-03-23T20:06:27.637Z,9.97
2017-03-23T20:07:26.676Z,8.70
2017-03-23T20:08:24.932Z,8.98
2017-03-23T20:09:23.170Z,8.60
2017-03-23T20:10:21.425Z,8.92
2017-03-23T20:11:19.683Z,8.67
2017-03-23T20:12:17.948Z,8.67
2017-03-23T20:13:16.235Z,8.75
2017-03-23T20:14:14.592Z,9.15
2017-03-23T20:15:12.856Z,9.97
2017-03-23T20:16:11.112Z,9.55
2017-03-23T20:17:09.365Z,9.00
2017-03-23T20:18:07.645Z,8.33
2017-03-23T20:19:05.997Z,8.62
2017-03-23T20:20:04.422Z,9.48
2017-03-23T20:21:02.668Z,9.17
2017-03-23T20:22:01.011Z,9.07
2017-03-23T20:22:59.261Z,10.15
2017-03-23T20:23:57.585Z,9.72
2017-03-23T20:24:55.901Z,8.82
2017-03-23T20:25:54.124Z,8.60
2017-03-23T20:26:52.349Z,11.52
2017-03-23T20:27:51.373Z,9.90
2017-03-23T20:28:49.630Z,9.38
2017-03-23T20:29:48.580Z,8.37
2017-03-23T20:30:47.637Z,9.97
2017-03-23T20:31:45.952Z,9.73
2017-03-23T20:32:44.958Z,8.62
2017-03-23T20:33:43.214Z,9.23
2017-03-23T20:34:41.972Z,9.55
2017-03-23T20:35:40.197Z,10.02
2017-03-23T20:36:38.445Z,9.22
2017-03-23T20:37:36.758Z,8.33
2017-03-23T20:38:35.014Z,9.83
2017-03-23T20:39:33.277Z,8.65
2017-03-23T20:40:31.593Z,8.43
2017-03-23T20:41:29.856Z,9.28
2017-03-23T20:42:28.092Z,9.22
2017-03-23T20:43:27.064Z,9.47
2017-03-23T20:44:25.353Z,9.30
2017-03-23T20:45:23.873Z,10.23
2017-03-23T20:46:22.097Z,8.30
2017-03-23T20:47:20.386Z,9.13
2017-03-23T20:48:18.614Z,9.38
2017-03-23T20:49:16.853Z,9.30
2017-03-23T20:50:15.120Z,8.97
2017-03-23T20:51:13.429Z,8.22
2017-03-23T20:52:12.009Z,9.10
2017-03-23T20:53:10.346Z,8.85
2017-03-23T20:54:09.441Z,9.35
2017-03-23T20:55:07.741Z,8.60
2017-03-23T20:56:05.984Z,9.52
2017-03-23T20:57:04.377Z,9.32
2017-03-23T20:58:02.631Z,8.50
2017-03-23T20:59:00.909Z,8.63
2017-03-23T20:59:59.198Z,8.65
2017-03-23T21:00:57.441Z,9.77
2017-03-23T21:01:55.905Z,9.00
2017-03-23T21:02:54.230Z,8.33
2017-03-23T21:03:52.497Z,8.98
2017-03-23T21:04:50.818Z,8.43
2017-03-23T21:05:49.056Z,9.43
2017-03-23T21:06:47.405Z,8.80
2017-03-23T21:07:45.698Z,8.87
2017-03-23T21:08:44.127Z,8.15
2017-03-23T21:09:42.462Z,10.00
2017-03-23T21:10:40.689Z,9.15
2017-03-23T21:11:39.682Z,10.30
2017-03-23T21:12:38.654Z,9.75
2017-03-23T21:13:37.665Z,10.90
2017-03-23T21:14:35.949Z,10.78
2017-03-23T21:15:34.193Z,10.28
2017-03-23T21:16:32.441Z,9.78
2017-03-23T21:17:30.667Z,11.17
2017-03-23T21:18:28.911Z,11.82
2017-03-23T21:19:27.446Z,11.30
2017-03-23T21:20:25.725Z,11.23
2017-03-23T21:21:24.018Z,10.48
2017-03-23T21:22:22.303Z,11.07
2017-03-23T21:23:20.637Z,11.38
2017-03-23T21:24:18.945Z,11.70
2017-03-23T21:25:17.881Z,11.90
2017-03-23T21:26:16.161Z,11.38
2017-03-23T21:27:14.452Z,12.02
2017-03-23T21:28:12.685Z,11.95
2017-03-23T21:29:10.994Z,12.80
2017-03-23T21:30:09.361Z,12.02
2017-03-23T21:31:07.593Z,13.38
2017-03-23T21:32:05.861Z,12.00
2017-03-23T21:33:04.157Z,12.23
2017-03-23T21:34:02.405Z,12.58
2017-03-23T21:35:00.719Z,13.08
2017-03-23T21:35:59.013Z,12.60
2017-03-23T21:36:57.327Z,14.32
2017-03-23T21:37:55.594Z,13.13
2017-03-23T21:38:53.858Z,12.45
2017-03-23T21:39:52.134Z,14.05
2017-03-23T21:40:50.397Z,13.55
2017-03-23T21:41:48.637Z,12.92
2017-03-23T21:42:46.922Z,14.72
2017-03-23T21:43:45.222Z,15.13
2017-03-23T21:44:44.219Z,14.63
2017-03-23T21:45:42.476Z,13.78
2017-03-23T21:46:40.721Z,14.75
2017-03-23T21:47:39.052Z,14.57
2017-03-23T21:48:37.311Z,14.25
2017-03-23T21:49:35.566Z,13.75
2017-03-23T21:50:33.880Z,13.87
2017-03-23T21:51:32.149Z,13.77
2017-03-23T21:52:30.386Z,13.97
2017-03-23T21:53:28.651Z,14.72
2017-03-23T21:54:26.876Z,14.02
2017-03-23T21:55:25.194Z,14.75
2017-03-23T21:56:23.441Z,14.83
2017-03-23T21:57:21.723Z,15.55
2017-03-23T21:58:20.695Z,15.45
2017-03-23T21:59:18.926Z,17.18
2017-03-23T22:00:17.322Z,17.32
2017-03-23T22:01:15.614Z,15.95
2017-03-23T22:02:13.865Z,15.10
2017-03-23T22:03:12.170Z,15.60
2017-03-23T22:04:10.409Z,16.97
2017-03-23T22:05:08.846Z,17.05
2017-03-23T22:06:07.135Z,17.45
2017-03-23T22:07:05.422Z,16.13
2017-03-23T22:08:03.697Z,14.48
2017-03-23T22:09:02.310Z,16.65
2017-03-23T22:10:00.559Z,17.03
2017-03-23T22:10:58.834Z,18.33
2017-03-23T22:11:57.082Z,15.65
2017-03-23T22:12:55.338Z,18.13
2017-03-23T22:13:53.598Z,17.45
2017-03-23T22:14:52.585Z,17.25
2017-03-23T22:15:50.833Z,15.78
2017-03-23T22:16:49.057Z,16.97
2017-03-23T22:17:47.345Z,16.97
2017-03-23T22:18:45.616Z,17.43
2017-03-23T22:19:43.882Z,16.68
2017-03-23T22:20:42.152Z,15.73
2017-03-23T22:21:40.399Z,16.42
2017-03-23T22:22:38.634Z,17.45
2017-03-23T22:23:36.846Z,17.00
2017-03-23T22:24:35.166Z,16.60
2017-03-23T22:25:34.681Z,17.68
2017-03-23T22:26:32.917Z,15.83
2017-03-23T22:27:31.137Z,16.95
2017-03-23T22:28:29.383Z,18.00
2017-03-23T22:29:27.696Z,16.88
2017-03-23T22:30:25.960Z,18.57
2017-03-23T22:31:24.280Z,17.03
2017-03-23T22:32:22.542Z,18.23
2017-03-23T22:33:20.817Z,17.03
2017-03-23T22:34:19.136Z,17.15
2017-03-23T22:35:17.414Z,18.30
2017-03-23T22:36:15.697Z,18.45
2017-03-23T22:37:14.685Z,19.68
2017-03-23T22:38:12.954Z,17.33